sensor_id;sensor_type;location;lat;lon;timestamp;P1;durP1;ratioP1;P2;durP2;ratioP2
28455;SDS011;15682;56.742;38.866;2023-08-30T00:01:52;13.6;;;8.3;;
28455;SDS011;15682;56.742;38.866;2023-08-30T00:03:52;12.1;;;8.0;;
28455;SDS011;15682;56.742;38.866;2023-08-30T00:05:52;14.8;;;8.5;;
28455;SDS011;15682;56.742;38.866;2023-08-30T00:07:52;12.9;;;8.1;;
28455;SDS011;15682;56.742;38.866;2023-08-30T00:09:53;14.3;;;8.8;;
28455;SDS011;15682;56.742;38.866;2023-08-30T00:11:53;15.9;;;9.0;;
28455;SDS011;15682;56.742;38.866;2023-08-30T00:13:53;12.1;;;8.1;;
28455;SDS011;15682;56.742;38.866;2023-08-30T00:15:53;12.3;;;8.4;;
28455;SDS011;15682;56.742;38.866;2023-08-30T00:17:54;12.6;;;7.7;;
28455;SDS011;15682;56.742;38.866;2023-08-30T00:19:54;13.5;;;8.2;;
28455;SDS011;15682;56.742;38.866;2023-08-30T00:21:54;14.9;;;8.1;;
28455;SDS011;15682;56.742;38.866;2023-08-30T00:23:54;10.6;;;7.0;;
28455;SDS011;15682;56.742;38.866;2023-08-30T00:25:55;13.0;;;7.1;;
28455;SDS011;15682;56.742;38.866;2023-08-30T00:27:55;13.3;;;7.0;;
28455;SDS011;15682;56.742;38.866;2023-08-30T00:29:55;12.1;;;7.4;;
28455;SDS011;15682;56.742;38.866;2023-08-30T00:31:56;12.0;;;6.9;;
28455;SDS011;15682;56.742;38.866;2023-08-30T00:33:56;14.4;;;7.2;;
28455;SDS011;15682;56.742;38.866;2023-08-30T00:35:56;12.4;;;7.1;;
28455;SDS011;15682;56.742;38.866;2023-08-30T00:37:56;12.9;;;6.9;;
28455;SDS011;15682;56.742;38.866;2023-08-30T00:39:56;11.9;;;7.4;;
28455;SDS011;15682;56.742;38.866;2023-08-30T00:41:57;11.9;;;7.6;;
28455;SDS011;15682;56.742;38.866;2023-08-30T00:43:57;12.6;;;8.1;;
28455;SDS011;15682;56.742;38.866;2023-08-30T00:45:57;12.1;;;7.4;;
28455;SDS011;15682;56.742;38.866;2023-08-30T00:47:57;11.0;;;7.7;;
28455;SDS011;15682;56.742;38.866;2023-08-30T00:49:58;12.6;;;8.1;;
28455;SDS011;15682;56.742;38.866;2023-08-30T00:51:58;13.4;;;8.5;;
28455;SDS011;15682;56.742;38.866;2023-08-30T00:53:58;17.7;;;8.5;;
28455;SDS011;15682;56.742;38.866;2023-08-30T00:55:58;16.1;;;9.1;;
28455;SDS011;15682;56.742;38.866;2023-08-30T00:57:59;14.8;;;8.7;;
28455;SDS011;15682;56.742;38.866;2023-08-30T00:59:59;14.6;;;8.9;;
28455;SDS011;15682;56.742;38.866;2023-08-30T01:02:00;13.7;;;9.1;;
28455;SDS011;15682;56.742;38.866;2023-08-30T01:03:59;15.7;;;9.7;;
28455;SDS011;15682;56.742;38.866;2023-08-30T01:06:01;19.3;;;9.5;;
28455;SDS011;15682;56.742;38.866;2023-08-30T01:08:00;15.5;;;9.6;;
28455;SDS011;15682;56.742;38.866;2023-08-30T01:10:00;16.6;;;10.2;;
28455;SDS011;15682;56.742;38.866;2023-08-30T01:12:02;17.4;;;10.2;;
28455;SDS011;15682;56.742;38.866;2023-08-30T01:14:03;17.3;;;10.6;;
28455;SDS011;15682;56.742;38.866;2023-08-30T01:16:01;16.9;;;11.2;;
28455;SDS011;15682;56.742;38.866;2023-08-30T01:18:01;20.9;;;11.6;;
28455;SDS011;15682;56.742;38.866;2023-08-30T01:20:04;20.0;;;11.9;;
28455;SDS011;15682;56.742;38.866;2023-08-30T01:22:04;19.8;;;12.2;;
28455;SDS011;15682;56.742;38.866;2023-08-30T01:24:02;20.9;;;12.5;;
28455;SDS011;15682;56.742;38.866;2023-08-30T01:26:04;20.4;;;12.6;;
28455;SDS011;15682;56.742;38.866;2023-08-30T01:28:03;19.2;;;12.8;;
28455;SDS011;15682;56.742;38.866;2023-08-30T01:30:03;22.8;;;12.9;;
28455;SDS011;15682;56.742;38.866;2023-08-30T01:32:03;21.8;;;13.0;;
28455;SDS011;15682;56.742;38.866;2023-08-30T01:34:03;22.9;;;13.1;;
28455;SDS011;15682;56.742;38.866;2023-08-30T01:36:04;23.8;;;13.6;;
28455;SDS011;15682;56.742;38.866;2023-08-30T01:38:04;25.7;;;12.7;;
28455;SDS011;15682;56.742;38.866;2023-08-30T01:40:05;22.2;;;13.6;;
28455;SDS011;15682;56.742;38.866;2023-08-30T01:42:05;23.7;;;13.6;;
28455;SDS011;15682;56.742;38.866;2023-08-30T01:44:05;24.9;;;14.0;;
28455;SDS011;15682;56.742;38.866;2023-08-30T01:46:05;20.6;;;13.5;;
28455;SDS011;15682;56.742;38.866;2023-08-30T01:48:06;20.0;;;12.4;;
28455;SDS011;15682;56.742;38.866;2023-08-30T01:50:06;19.6;;;12.5;;
28455;SDS011;15682;56.742;38.866;2023-08-30T01:52:06;18.9;;;12.4;;
28455;SDS011;15682;56.742;38.866;2023-08-30T01:54:06;18.6;;;11.6;;
28455;SDS011;15682;56.742;38.866;2023-08-30T01:56:06;20.9;;;12.2;;
28455;SDS011;15682;56.742;38.866;2023-08-30T01:58:07;18.8;;;10.5;;
28455;SDS011;15682;56.742;38.866;2023-08-30T02:00:07;17.3;;;10.4;;
28455;SDS011;15682;56.742;38.866;2023-08-30T02:02:07;14.9;;;9.9;;
28455;SDS011;15682;56.742;38.866;2023-08-30T02:04:07;18.3;;;9.9;;
28455;SDS011;15682;56.742;38.866;2023-08-30T02:06:08;14.1;;;9.4;;
28455;SDS011;15682;56.742;38.866;2023-08-30T02:08:09;16.3;;;9.7;;
28455;SDS011;15682;56.742;38.866;2023-08-30T02:10:08;18.2;;;9.6;;
28455;SDS011;15682;56.742;38.866;2023-08-30T02:12:10;18.4;;;10.1;;
28455;SDS011;15682;56.742;38.866;2023-08-30T02:14:09;17.9;;;9.6;;
28455;SDS011;15682;56.742;38.866;2023-08-30T02:16:09;16.5;;;10.1;;
28455;SDS011;15682;56.742;38.866;2023-08-30T02:18:09;16.5;;;9.4;;
28455;SDS011;15682;56.742;38.866;2023-08-30T02:20:09;17.0;;;8.9;;
28455;SDS011;15682;56.742;38.866;2023-08-30T02:22:10;14.9;;;9.2;;
28455;SDS011;15682;56.742;38.866;2023-08-30T02:24:10;16.0;;;9.3;;
28455;SDS011;15682;56.742;38.866;2023-08-30T02:26:10;15.4;;;9.5;;
28455;SDS011;15682;56.742;38.866;2023-08-30T02:28:10;14.5;;;9.0;;
28455;SDS011;15682;56.742;38.866;2023-08-30T02:30:11;16.4;;;9.1;;
28455;SDS011;15682;56.742;38.866;2023-08-30T02:32:11;15.1;;;8.6;;
28455;SDS011;15682;56.742;38.866;2023-08-30T02:34:11;14.5;;;9.0;;
28455;SDS011;15682;56.742;38.866;2023-08-30T02:36:11;16.0;;;9.6;;
28455;SDS011;15682;56.742;38.866;2023-08-30T02:38:12;15.0;;;8.9;;
28455;SDS011;15682;56.742;38.866;2023-08-30T02:40:12;14.1;;;9.3;;
28455;SDS011;15682;56.742;38.866;2023-08-30T02:42:12;16.7;;;9.4;;
28455;SDS011;15682;56.742;38.866;2023-08-30T02:44:12;16.4;;;9.9;;
28455;SDS011;15682;56.742;38.866;2023-08-30T02:46:13;17.3;;;10.2;;
28455;SDS011;15682;56.742;38.866;2023-08-30T02:48:13;18.7;;;10.9;;
28455;SDS011;15682;56.742;38.866;2023-08-30T02:50:13;18.7;;;11.1;;
28455;SDS011;15682;56.742;38.866;2023-08-30T02:52:13;17.9;;;11.2;;
28455;SDS011;15682;56.742;38.866;2023-08-30T02:54:14;19.0;;;11.4;;
28455;SDS011;15682;56.742;38.866;2023-08-30T02:56:14;22.8;;;11.8;;
28455;SDS011;15682;56.742;38.866;2023-08-30T02:58:14;22.0;;;11.8;;
28455;SDS011;15682;56.742;38.866;2023-08-30T03:00:15;20.8;;;11.6;;
28455;SDS011;15682;56.742;38.866;2023-08-30T03:02:15;20.6;;;11.3;;
28455;SDS011;15682;56.742;38.866;2023-08-30T03:04:15;20.1;;;11.1;;
28455;SDS011;15682;56.742;38.866;2023-08-30T03:06:15;19.4;;;12.0;;
28455;SDS011;15682;56.742;38.866;2023-08-30T03:08:15;23.4;;;12.6;;
28455;SDS011;15682;56.742;38.866;2023-08-30T03:10:16;22.5;;;12.2;;
28455;SDS011;15682;56.742;38.866;2023-08-30T03:12:16;22.4;;;12.1;;
28455;SDS011;15682;56.742;38.866;2023-08-30T03:14:16;24.6;;;12.9;;
28455;SDS011;15682;56.742;38.866;2023-08-30T03:16:17;27.4;;;12.8;;
28455;SDS011;15682;56.742;38.866;2023-08-30T03:18:17;26.9;;;12.7;;
28455;SDS011;15682;56.742;38.866;2023-08-30T03:20:17;26.6;;;12.7;;
28455;SDS011;15682;56.742;38.866;2023-08-30T03:22:17;26.9;;;13.0;;
28455;SDS011;15682;56.742;38.866;2023-08-30T03:24:18;30.3;;;12.9;;
28455;SDS011;15682;56.742;38.866;2023-08-30T03:26:18;27.4;;;12.9;;
28455;SDS011;15682;56.742;38.866;2023-08-30T03:28:18;26.9;;;13.2;;
28455;SDS011;15682;56.742;38.866;2023-08-30T03:30:18;28.8;;;12.4;;
28455;SDS011;15682;56.742;38.866;2023-08-30T03:32:20;27.5;;;12.9;;
28455;SDS011;15682;56.742;38.866;2023-08-30T03:34:19;22.7;;;11.5;;
28455;SDS011;15682;56.742;38.866;2023-08-30T03:36:19;23.5;;;11.4;;
28455;SDS011;15682;56.742;38.866;2023-08-30T03:38:19;16.9;;;9.2;;
28455;SDS011;15682;56.742;38.866;2023-08-30T03:40:20;14.7;;;9.1;;
28455;SDS011;15682;56.742;38.866;2023-08-30T03:42:20;13.9;;;8.6;;
28455;SDS011;15682;56.742;38.866;2023-08-30T03:44:20;11.6;;;7.3;;
28455;SDS011;15682;56.742;38.866;2023-08-30T03:46:20;10.5;;;7.1;;
28455;SDS011;15682;56.742;38.866;2023-08-30T03:48:21;10.3;;;6.0;;
28455;SDS011;15682;56.742;38.866;2023-08-30T03:50:21;8.6;;;5.6;;
28455;SDS011;15682;56.742;38.866;2023-08-30T03:52:21;6.7;;;5.0;;
28455;SDS011;15682;56.742;38.866;2023-08-30T03:54:21;7.9;;;4.7;;
28455;SDS011;15682;56.742;38.866;2023-08-30T03:56:22;5.6;;;4.2;;
28455;SDS011;15682;56.742;38.866;2023-08-30T03:58:22;5.8;;;4.1;;
28455;SDS011;15682;56.742;38.866;2023-08-30T04:00:22;7.1;;;3.8;;
28455;SDS011;15682;56.742;38.866;2023-08-30T04:02:23;6.1;;;3.6;;
28455;SDS011;15682;56.742;38.866;2023-08-30T04:04:23;4.2;;;3.4;;
28455;SDS011;15682;56.742;38.866;2023-08-30T04:06:23;5.5;;;3.3;;
28455;SDS011;15682;56.742;38.866;2023-08-30T04:08:23;9.4;;;3.7;;
28455;SDS011;15682;56.742;38.866;2023-08-30T04:10:23;7.2;;;3.6;;
28455;SDS011;15682;56.742;38.866;2023-08-30T04:12:24;4.8;;;3.7;;
28455;SDS011;15682;56.742;38.866;2023-08-30T04:14:24;7.2;;;4.2;;
28455;SDS011;15682;56.742;38.866;2023-08-30T04:16:24;8.3;;;4.2;;
28455;SDS011;15682;56.742;38.866;2023-08-30T04:18:24;20.8;;;5.7;;
28455;SDS011;15682;56.742;38.866;2023-08-30T04:20:25;7.9;;;4.0;;
28455;SDS011;15682;56.742;38.866;2023-08-30T04:22:25;6.2;;;4.0;;
28455;SDS011;15682;56.742;38.866;2023-08-30T04:24:25;5.0;;;3.1;;
28455;SDS011;15682;56.742;38.866;2023-08-30T04:26:26;5.0;;;2.9;;
28455;SDS011;15682;56.742;38.866;2023-08-30T04:28:26;6.1;;;3.0;;
28455;SDS011;15682;56.742;38.866;2023-08-30T04:30:26;4.6;;;3.0;;
28455;SDS011;15682;56.742;38.866;2023-08-30T04:32:27;3.7;;;3.0;;
28455;SDS011;15682;56.742;38.866;2023-08-30T04:34:27;5.6;;;3.1;;
28455;SDS011;15682;56.742;38.866;2023-08-30T04:36:27;5.4;;;3.7;;
28455;SDS011;15682;56.742;38.866;2023-08-30T04:38:27;7.0;;;3.7;;
28455;SDS011;15682;56.742;38.866;2023-08-30T04:40:27;6.4;;;3.3;;
28455;SDS011;15682;56.742;38.866;2023-08-30T04:42:28;6.6;;;3.5;;
28455;SDS011;15682;56.742;38.866;2023-08-30T04:44:28;3.6;;;2.9;;
28455;SDS011;15682;56.742;38.866;2023-08-30T04:46:28;5.0;;;3.4;;
28455;SDS011;15682;56.742;38.866;2023-08-30T04:48:29;5.8;;;3.2;;
28455;SDS011;15682;56.742;38.866;2023-08-30T04:50:29;4.1;;;2.9;;
28455;SDS011;15682;56.742;38.866;2023-08-30T04:52:29;3.8;;;2.9;;
28455;SDS011;15682;56.742;38.866;2023-08-30T04:54:29;13.2;;;4.3;;
28455;SDS011;15682;56.742;38.866;2023-08-30T04:56:30;5.9;;;2.8;;
28455;SDS011;15682;56.742;38.866;2023-08-30T04:58:30;15.5;;;3.6;;
28455;SDS011;15682;56.742;38.866;2023-08-30T05:00:30;4.9;;;2.4;;
28455;SDS011;15682;56.742;38.866;2023-08-30T05:02:31;8.3;;;2.7;;
28455;SDS011;15682;56.742;38.866;2023-08-30T05:04:31;4.5;;;2.8;;
28455;SDS011;15682;56.742;38.866;2023-08-30T05:06:31;5.8;;;2.8;;
28455;SDS011;15682;56.742;38.866;2023-08-30T05:08:31;9.5;;;3.7;;
28455;SDS011;15682;56.742;38.866;2023-08-30T05:10:32;5.7;;;2.7;;
28455;SDS011;15682;56.742;38.866;2023-08-30T05:12:33;5.6;;;2.6;;
28455;SDS011;15682;56.742;38.866;2023-08-30T05:14:33;3.7;;;2.6;;
28455;SDS011;15682;56.742;38.866;2023-08-30T05:16:32;4.4;;;2.4;;
28455;SDS011;15682;56.742;38.866;2023-08-30T05:18:33;5.6;;;2.8;;
28455;SDS011;15682;56.742;38.866;2023-08-30T05:20:33;8.9;;;2.8;;
28455;SDS011;15682;56.742;38.866;2023-08-30T05:22:33;3.4;;;2.0;;
28455;SDS011;15682;56.742;38.866;2023-08-30T05:24:34;3.9;;;2.2;;
28455;SDS011;15682;56.742;38.866;2023-08-30T05:26:34;6.2;;;2.4;;
28455;SDS011;15682;56.742;38.866;2023-08-30T05:28:34;5.5;;;2.2;;
28455;SDS011;15682;56.742;38.866;2023-08-30T05:30:35;4.1;;;2.3;;
28455;SDS011;15682;56.742;38.866;2023-08-30T05:32:35;6.2;;;2.3;;
28455;SDS011;15682;56.742;38.866;2023-08-30T05:34:35;3.8;;;2.4;;
28455;SDS011;15682;56.742;38.866;2023-08-30T05:36:35;2.7;;;2.0;;
28455;SDS011;15682;56.742;38.866;2023-08-30T05:38:36;3.6;;;2.1;;
28455;SDS011;15682;56.742;38.866;2023-08-30T05:40:36;4.9;;;2.2;;
28455;SDS011;15682;56.742;38.866;2023-08-30T05:42:36;3.1;;;2.1;;
28455;SDS011;15682;56.742;38.866;2023-08-30T05:44:37;5.4;;;2.1;;
28455;SDS011;15682;56.742;38.866;2023-08-30T05:46:37;6.4;;;2.5;;
28455;SDS011;15682;56.742;38.866;2023-08-30T05:48:37;6.8;;;2.2;;
28455;SDS011;15682;56.742;38.866;2023-08-30T05:50:38;8.5;;;2.5;;
28455;SDS011;15682;56.742;38.866;2023-08-30T05:52:38;3.9;;;2.4;;
28455;SDS011;15682;56.742;38.866;2023-08-30T05:54:38;5.0;;;2.3;;
28455;SDS011;15682;56.742;38.866;2023-08-30T05:56:38;4.9;;;2.4;;
28455;SDS011;15682;56.742;38.866;2023-08-30T05:58:39;3.7;;;2.5;;
28455;SDS011;15682;56.742;38.866;2023-08-30T06:00:39;4.6;;;2.6;;
28455;SDS011;15682;56.742;38.866;2023-08-30T06:02:40;4.2;;;2.7;;
28455;SDS011;15682;56.742;38.866;2023-08-30T06:04:40;3.2;;;2.4;;
28455;SDS011;15682;56.742;38.866;2023-08-30T06:06:40;4.9;;;2.7;;
28455;SDS011;15682;56.742;38.866;2023-08-30T06:08:40;4.3;;;2.3;;
28455;SDS011;15682;56.742;38.866;2023-08-30T06:10:41;4.2;;;2.3;;
28455;SDS011;15682;56.742;38.866;2023-08-30T06:12:41;6.8;;;2.2;;
28455;SDS011;15682;56.742;38.866;2023-08-30T06:14:41;10.2;;;2.5;;
28455;SDS011;15682;56.742;38.866;2023-08-30T06:16:42;5.1;;;2.0;;
28455;SDS011;15682;56.742;38.866;2023-08-30T06:18:42;4.9;;;2.4;;
28455;SDS011;15682;56.742;38.866;2023-08-30T06:20:42;4.7;;;2.2;;
28455;SDS011;15682;56.742;38.866;2023-08-30T06:22:43;2.6;;;2.1;;
28455;SDS011;15682;56.742;38.866;2023-08-30T06:24:43;6.4;;;2.9;;
28455;SDS011;15682;56.742;38.866;2023-08-30T06:26:43;6.3;;;3.1;;
28455;SDS011;15682;56.742;38.866;2023-08-30T06:28:44;6.4;;;2.9;;
28455;SDS011;15682;56.742;38.866;2023-08-30T06:30:44;4.9;;;2.5;;
28455;SDS011;15682;56.742;38.866;2023-08-30T06:32:44;3.0;;;2.1;;
28455;SDS011;15682;56.742;38.866;2023-08-30T06:34:45;3.2;;;1.6;;
28455;SDS011;15682;56.742;38.866;2023-08-30T06:36:45;6.1;;;2.0;;
28455;SDS011;15682;56.742;38.866;2023-08-30T06:38:45;4.5;;;1.8;;
28455;SDS011;15682;56.742;38.866;2023-08-30T06:40:46;6.8;;;2.0;;
28455;SDS011;15682;56.742;38.866;2023-08-30T06:42:46;5.0;;;2.3;;
28455;SDS011;15682;56.742;38.866;2023-08-30T06:44:46;4.4;;;2.3;;
28455;SDS011;15682;56.742;38.866;2023-08-30T06:46:47;5.6;;;2.1;;
28455;SDS011;15682;56.742;38.866;2023-08-30T06:48:47;6.4;;;2.4;;
28455;SDS011;15682;56.742;38.866;2023-08-30T06:50:47;5.1;;;2.5;;
28455;SDS011;15682;56.742;38.866;2023-08-30T06:52:48;5.4;;;2.2;;
28455;SDS011;15682;56.742;38.866;2023-08-30T06:54:48;4.0;;;2.1;;
28455;SDS011;15682;56.742;38.866;2023-08-30T06:56:56;3.5;;;2.3;;
28455;SDS011;15682;56.742;38.866;2023-08-30T06:58:49;2.6;;;1.9;;
28455;SDS011;15682;56.742;38.866;2023-08-30T07:00:49;4.0;;;2.0;;
28455;SDS011;15682;56.742;38.866;2023-08-30T07:02:49;3.3;;;1.9;;
28455;SDS011;15682;56.742;38.866;2023-08-30T07:04:50;4.6;;;2.7;;
28455;SDS011;15682;56.742;38.866;2023-08-30T07:06:50;11.3;;;5.4;;
28455;SDS011;15682;56.742;38.866;2023-08-30T07:08:50;8.1;;;3.9;;
28455;SDS011;15682;56.742;38.866;2023-08-30T07:10:51;3.8;;;2.4;;
28455;SDS011;15682;56.742;38.866;2023-08-30T07:12:51;3.8;;;2.3;;
28455;SDS011;15682;56.742;38.866;2023-08-30T07:14:51;4.3;;;1.9;;
28455;SDS011;15682;56.742;38.866;2023-08-30T07:16:52;7.5;;;2.2;;
28455;SDS011;15682;56.742;38.866;2023-08-30T07:18:52;7.1;;;2.2;;
28455;SDS011;15682;56.742;38.866;2023-08-30T07:20:53;5.0;;;2.0;;
28455;SDS011;15682;56.742;38.866;2023-08-30T07:22:53;8.1;;;1.8;;
28455;SDS011;15682;56.742;38.866;2023-08-30T07:24:53;5.1;;;2.3;;
28455;SDS011;15682;56.742;38.866;2023-08-30T07:26:54;4.6;;;2.6;;
28455;SDS011;15682;56.742;38.866;2023-08-30T07:28:54;7.1;;;2.4;;
28455;SDS011;15682;56.742;38.866;2023-08-30T07:31:01;4.9;;;2.0;;
28455;SDS011;15682;56.742;38.866;2023-08-30T07:32:55;4.9;;;2.5;;
28455;SDS011;15682;56.742;38.866;2023-08-30T07:34:55;7.0;;;2.6;;
28455;SDS011;15682;56.742;38.866;2023-08-30T07:36:55;5.8;;;2.4;;
28455;SDS011;15682;56.742;38.866;2023-08-30T07:38:56;9.9;;;6.0;;
28455;SDS011;15682;56.742;38.866;2023-08-30T07:40:56;16.6;;;8.7;;
28455;SDS011;15682;56.742;38.866;2023-08-30T07:42:56;9.0;;;3.8;;
28455;SDS011;15682;56.742;38.866;2023-08-30T07:44:57;7.2;;;3.2;;
28455;SDS011;15682;56.742;38.866;2023-08-30T07:46:57;10.0;;;2.9;;
28455;SDS011;15682;56.742;38.866;2023-08-30T07:48:58;3.0;;;2.0;;
28455;SDS011;15682;56.742;38.866;2023-08-30T07:50:58;5.0;;;1.7;;
28455;SDS011;15682;56.742;38.866;2023-08-30T07:52:58;6.2;;;1.9;;
28455;SDS011;15682;56.742;38.866;2023-08-30T07:54:59;6.4;;;2.2;;
28455;SDS011;15682;56.742;38.866;2023-08-30T07:56:59;4.0;;;2.0;;
28455;SDS011;15682;56.742;38.866;2023-08-30T07:58:59;4.1;;;2.2;;
28455;SDS011;15682;56.742;38.866;2023-08-30T08:01:00;3.6;;;2.2;;
28455;SDS011;15682;56.742;38.866;2023-08-30T08:03:00;4.7;;;2.3;;
28455;SDS011;15682;56.742;38.866;2023-08-30T08:05:01;8.2;;;2.5;;
28455;SDS011;15682;56.742;38.866;2023-08-30T08:07:01;4.5;;;2.3;;
28455;SDS011;15682;56.742;38.866;2023-08-30T08:09:01;3.0;;;2.2;;
28455;SDS011;15682;56.742;38.866;2023-08-30T08:11:02;10.7;;;2.5;;
28455;SDS011;15682;56.742;38.866;2023-08-30T08:13:03;2.9;;;1.8;;
28455;SDS011;15682;56.742;38.866;2023-08-30T08:15:03;5.5;;;1.8;;
28455;SDS011;15682;56.742;38.866;2023-08-30T08:17:04;4.2;;;1.7;;
28455;SDS011;15682;56.742;38.866;2023-08-30T08:19:03;6.2;;;1.8;;
28455;SDS011;15682;56.742;38.866;2023-08-30T08:21:04;3.4;;;1.6;;
28455;SDS011;15682;56.742;38.866;2023-08-30T08:23:04;4.9;;;1.7;;
28455;SDS011;15682;56.742;38.866;2023-08-30T08:25:05;6.2;;;1.8;;
28455;SDS011;15682;56.742;38.866;2023-08-30T08:27:05;5.9;;;1.7;;
28455;SDS011;15682;56.742;38.866;2023-08-30T08:29:05;3.6;;;1.6;;
28455;SDS011;15682;56.742;38.866;2023-08-30T08:31:06;4.8;;;1.7;;
28455;SDS011;15682;56.742;38.866;2023-08-30T08:33:06;3.3;;;2.0;;
28455;SDS011;15682;56.742;38.866;2023-08-30T08:35:06;4.5;;;1.8;;
28455;SDS011;15682;56.742;38.866;2023-08-30T08:37:07;2.8;;;1.8;;
28455;SDS011;15682;56.742;38.866;2023-08-30T08:39:07;3.5;;;1.9;;
28455;SDS011;15682;56.742;38.866;2023-08-30T08:41:08;3.1;;;2.0;;
28455;SDS011;15682;56.742;38.866;2023-08-30T08:43:09;2.9;;;2.0;;
28455;SDS011;15682;56.742;38.866;2023-08-30T08:45:09;8.0;;;2.2;;
28455;SDS011;15682;56.742;38.866;2023-08-30T08:47:08;6.2;;;2.0;;
28455;SDS011;15682;56.742;38.866;2023-08-30T08:49:11;92.7;;;4.3;;
28455;SDS011;15682;56.742;38.866;2023-08-30T08:51:09;4.6;;;2.3;;
28455;SDS011;15682;56.742;38.866;2023-08-30T08:53:10;2.8;;;2.1;;
28455;SDS011;15682;56.742;38.866;2023-08-30T08:55:10;3.2;;;2.1;;
28455;SDS011;15682;56.742;38.866;2023-08-30T08:57:10;5.5;;;2.1;;
28455;SDS011;15682;56.742;38.866;2023-08-30T08:59:11;5.8;;;2.0;;
28455;SDS011;15682;56.742;38.866;2023-08-30T09:01:11;3.0;;;2.1;;
28455;SDS011;15682;56.742;38.866;2023-08-30T09:03:11;5.4;;;2.2;;
28455;SDS011;15682;56.742;38.866;2023-08-30T09:05:12;7.3;;;2.1;;
28455;SDS011;15682;56.742;38.866;2023-08-30T09:07:12;4.2;;;2.2;;
28455;SDS011;15682;56.742;38.866;2023-08-30T09:09:12;4.2;;;2.0;;
28455;SDS011;15682;56.742;38.866;2023-08-30T09:11:13;4.4;;;2.3;;
28455;SDS011;15682;56.742;38.866;2023-08-30T09:13:13;2.7;;;1.9;;
28455;SDS011;15682;56.742;38.866;2023-08-30T09:15:13;3.5;;;1.8;;
28455;SDS011;15682;56.742;38.866;2023-08-30T09:17:14;8.6;;;2.1;;
28455;SDS011;15682;56.742;38.866;2023-08-30T09:19:19;7.0;;;1.9;;
28455;SDS011;15682;56.742;38.866;2023-08-30T09:21:14;3.0;;;1.9;;
28455;SDS011;15682;56.742;38.866;2023-08-30T09:23:16;3.4;;;2.1;;
28455;SDS011;15682;56.742;38.866;2023-08-30T09:25:22;5.5;;;2.0;;
28455;SDS011;15682;56.742;38.866;2023-08-30T09:27:16;2.7;;;1.9;;
28455;SDS011;15682;56.742;38.866;2023-08-30T09:29:16;3.8;;;2.0;;
28455;SDS011;15682;56.742;38.866;2023-08-30T09:31:17;2.9;;;1.9;;
28455;SDS011;15682;56.742;38.866;2023-08-30T09:33:20;4.4;;;2.0;;
28455;SDS011;15682;56.742;38.866;2023-08-30T09:35:17;2.4;;;1.6;;
28455;SDS011;15682;56.742;38.866;2023-08-30T09:37:19;4.5;;;1.7;;
28455;SDS011;15682;56.742;38.866;2023-08-30T09:39:18;2.9;;;1.6;;
28455;SDS011;15682;56.742;38.866;2023-08-30T09:41:18;2.1;;;1.7;;
28455;SDS011;15682;56.742;38.866;2023-08-30T09:43:19;4.4;;;1.7;;
28455;SDS011;15682;56.742;38.866;2023-08-30T09:45:19;2.4;;;1.6;;
28455;SDS011;15682;56.742;38.866;2023-08-30T09:47:19;3.2;;;1.9;;
28455;SDS011;15682;56.742;38.866;2023-08-30T09:49:21;3.2;;;1.9;;
28455;SDS011;15682;56.742;38.866;2023-08-30T09:51:20;27.9;;;2.9;;
28455;SDS011;15682;56.742;38.866;2023-08-30T09:53:21;3.9;;;2.1;;
28455;SDS011;15682;56.742;38.866;2023-08-30T09:55:21;6.4;;;2.4;;
28455;SDS011;15682;56.742;38.866;2023-08-30T09:57:21;3.2;;;1.9;;
28455;SDS011;15682;56.742;38.866;2023-08-30T09:59:22;3.8;;;2.0;;
28455;SDS011;15682;56.742;38.866;2023-08-30T10:01:22;4.0;;;2.0;;
28455;SDS011;15682;56.742;38.866;2023-08-30T10:03:22;5.8;;;2.2;;
28455;SDS011;15682;56.742;38.866;2023-08-30T10:05:23;4.0;;;2.0;;
28455;SDS011;15682;56.742;38.866;2023-08-30T10:07:23;6.5;;;2.3;;
28455;SDS011;15682;56.742;38.866;2023-08-30T10:09:24;2.8;;;1.9;;
28455;SDS011;15682;56.742;38.866;2023-08-30T10:11:24;3.6;;;2.1;;
28455;SDS011;15682;56.742;38.866;2023-08-30T10:13:25;3.3;;;1.9;;
28455;SDS011;15682;56.742;38.866;2023-08-30T10:15:25;18.6;;;2.7;;
28455;SDS011;15682;56.742;38.866;2023-08-30T10:17:26;4.0;;;2.0;;
28455;SDS011;15682;56.742;38.866;2023-08-30T10:19:26;2.9;;;2.3;;
28455;SDS011;15682;56.742;38.866;2023-08-30T10:21:26;8.5;;;2.3;;
28455;SDS011;15682;56.742;38.866;2023-08-30T10:23:26;5.6;;;2.3;;
28455;SDS011;15682;56.742;38.866;2023-08-30T10:25:27;6.4;;;2.2;;
28455;SDS011;15682;56.742;38.866;2023-08-30T10:27:27;4.6;;;2.2;;
28455;SDS011;15682;56.742;38.866;2023-08-30T10:29:28;9.7;;;2.5;;
28455;SDS011;15682;56.742;38.866;2023-08-30T10:31:28;15.8;;;2.6;;
28455;SDS011;15682;56.742;38.866;2023-08-30T10:33:28;6.7;;;2.3;;
28455;SDS011;15682;56.742;38.866;2023-08-30T10:35:29;4.5;;;2.1;;
28455;SDS011;15682;56.742;38.866;2023-08-30T10:37:29;3.5;;;2.0;;
28455;SDS011;15682;56.742;38.866;2023-08-30T10:39:33;5.4;;;1.9;;
28455;SDS011;15682;56.742;38.866;2023-08-30T10:41:30;2.2;;;1.7;;
28455;SDS011;15682;56.742;38.866;2023-08-30T10:43:33;2.7;;;1.9;;
28455;SDS011;15682;56.742;38.866;2023-08-30T10:45:31;5.8;;;2.2;;
28455;SDS011;15682;56.742;38.866;2023-08-30T10:47:32;6.0;;;2.1;;
28455;SDS011;15682;56.742;38.866;2023-08-30T10:49:39;7.6;;;2.4;;
28455;SDS011;15682;56.742;38.866;2023-08-30T10:51:35;10.6;;;2.6;;
28455;SDS011;15682;56.742;38.866;2023-08-30T10:53:32;9.4;;;2.6;;
28455;SDS011;15682;56.742;38.866;2023-08-30T10:55:33;5.7;;;2.4;;
28455;SDS011;15682;56.742;38.866;2023-08-30T10:57:33;6.0;;;2.2;;
28455;SDS011;15682;56.742;38.866;2023-08-30T10:59:34;9.1;;;2.7;;
28455;SDS011;15682;56.742;38.866;2023-08-30T11:01:34;7.5;;;2.2;;
28455;SDS011;15682;56.742;38.866;2023-08-30T11:03:34;14.1;;;3.0;;
28455;SDS011;15682;56.742;38.866;2023-08-30T11:05:35;6.4;;;2.4;;
28455;SDS011;15682;56.742;38.866;2023-08-30T11:07:35;3.8;;;2.0;;
28455;SDS011;15682;56.742;38.866;2023-08-30T11:09:36;9.2;;;2.9;;
28455;SDS011;15682;56.742;38.866;2023-08-30T11:11:36;8.1;;;4.0;;
28455;SDS011;15682;56.742;38.866;2023-08-30T11:13:37;9.2;;;3.4;;
28455;SDS011;15682;56.742;38.866;2023-08-30T11:15:37;4.1;;;2.8;;
28455;SDS011;15682;56.742;38.866;2023-08-30T11:17:37;12.3;;;6.1;;
28455;SDS011;15682;56.742;38.866;2023-08-30T11:19:38;8.0;;;4.0;;
28455;SDS011;15682;56.742;38.866;2023-08-30T11:21:39;3.4;;;2.0;;
28455;SDS011;15682;56.742;38.866;2023-08-30T11:23:39;4.9;;;2.1;;
28455;SDS011;15682;56.742;38.866;2023-08-30T11:25:39;6.7;;;2.4;;
28455;SDS011;15682;56.742;38.866;2023-08-30T11:27:40;4.6;;;2.1;;
28455;SDS011;15682;56.742;38.866;2023-08-30T11:29:40;4.5;;;2.0;;
28455;SDS011;15682;56.742;38.866;2023-08-30T11:31:40;3.8;;;2.0;;
28455;SDS011;15682;56.742;38.866;2023-08-30T11:33:41;5.5;;;2.2;;
28455;SDS011;15682;56.742;38.866;2023-08-30T11:35:41;5.0;;;2.1;;
28455;SDS011;15682;56.742;38.866;2023-08-30T11:37:41;4.6;;;2.1;;
28455;SDS011;15682;56.742;38.866;2023-08-30T11:39:42;7.6;;;2.3;;
28455;SDS011;15682;56.742;38.866;2023-08-30T11:41:42;4.8;;;2.0;;
28455;SDS011;15682;56.742;38.866;2023-08-30T11:43:43;5.7;;;2.3;;
28455;SDS011;15682;56.742;38.866;2023-08-30T11:45:43;4.9;;;2.3;;
28455;SDS011;15682;56.742;38.866;2023-08-30T11:47:43;7.5;;;2.6;;
28455;SDS011;15682;56.742;38.866;2023-08-30T11:49:44;4.9;;;2.3;;
28455;SDS011;15682;56.742;38.866;2023-08-30T11:51:44;4.2;;;2.8;;
28455;SDS011;15682;56.742;38.866;2023-08-30T11:53:45;4.3;;;3.1;;
28455;SDS011;15682;56.742;38.866;2023-08-30T11:55:45;5.0;;;3.4;;
28455;SDS011;15682;56.742;38.866;2023-08-30T11:57:48;10.3;;;3.8;;
28455;SDS011;15682;56.742;38.866;2023-08-30T11:59:46;10.1;;;4.0;;
28455;SDS011;15682;56.742;38.866;2023-08-30T12:01:46;5.9;;;3.8;;
28455;SDS011;15682;56.742;38.866;2023-08-30T12:03:47;7.1;;;3.6;;
28455;SDS011;15682;56.742;38.866;2023-08-30T12:05:47;10.7;;;3.9;;
28455;SDS011;15682;56.742;38.866;2023-08-30T12:07:47;4.8;;;3.0;;
28455;SDS011;15682;56.742;38.866;2023-08-30T12:09:48;5.0;;;2.5;;
28455;SDS011;15682;56.742;38.866;2023-08-30T12:11:48;8.4;;;2.8;;